sensor_id;sensor_type;location;lat;lon;timestamp;pressure;altitude;pressure_sealevel;temperature;humidity
21877;BME280;11103;43.788;23.710;2022-11-22T00:02:22;148148.25;;;7.04;100.00
21877;BME280;11103;43.788;23.710;2022-11-22T00:04:47;148118.94;;;6.92;100.00
21877;BME280;11103;43.788;23.710;2022-11-22T00:07:13;148095.97;;;6.83;100.00
21877;BME280;11103;43.788;23.710;2022-11-22T00:09:38;148110.00;;;6.89;100.00
21877;BME280;11103;43.788;23.710;2022-11-22T00:12:04;148112.56;;;6.90;100.00
21877;BME280;11103;43.788;23.710;2022-11-22T00:14:29;148103.63;;;6.86;100.00
21877;BME280;11103;43.788;23.710;2022-11-22T00:16:54;148122.75;;;6.94;100.00
21877;BME280;11103;43.788;23.710;2022-11-22T00:19:20;148112.56;;;6.90;100.00
21877;BME280;11103;43.788;23.710;2022-11-22T00:21:45;148116.38;;;6.91;100.00
21877;BME280;11103;43.788;23.710;2022-11-22T00:24:11;148103.63;;;6.86;100.00
21877;BME280;11103;43.788;23.710;2022-11-22T00:26:37;148076.84;;;6.76;100.00
21877;BME280;11103;43.788;23.710;2022-11-22T00:29:03;148075.56;;;6.75;100.00
21877;BME280;11103;43.788;23.710;2022-11-22T00:31:28;148024.53;;;6.55;100.00
21877;BME280;11103;43.788;23.710;2022-11-22T00:33:53;148078.13;;;6.76;100.00
21877;BME280;11103;43.788;23.710;2022-11-22T00:36:19;148074.28;;;6.75;100.00
21877;BME280;11103;43.788;23.710;2022-11-22T00:38:44;148029.66;;;6.57;100.00
21877;BME280;11103;43.788;23.710;2022-11-22T00:41:10;148027.09;;;6.56;100.00
21877;BME280;11103;43.788;23.710;2022-11-22T00:43:35;148027.09;;;6.56;100.00
21877;BME280;11103;43.788;23.710;2022-11-22T00:46:01;148036.03;;;6.59;100.00
21877;BME280;11103;43.788;23.710;2022-11-22T00:48:26;148030.94;;;6.57;100.00
21877;BME280;11103;43.788;23.710;2022-11-22T00:50:52;148029.66;;;6.57;100.00
21877;BME280;11103;43.788;23.710;2022-11-22T00:53:17;148024.53;;;6.55;100.00
21877;BME280;11103;43.788;23.710;2022-11-22T00:55:44;147982.47;;;6.38;100.00
21877;BME280;11103;43.788;23.710;2022-11-22T00:58:10;148004.13;;;6.47;100.00
21877;BME280;11103;43.788;23.710;2022-11-22T01:00:35;147964.59;;;6.31;100.00
21877;BME280;11103;43.788;23.710;2022-11-22T01:03:00;147972.25;;;6.34;100.00
21877;BME280;11103;43.788;23.710;2022-11-22T01:05:26;147950.59;;;6.26;100.00
21877;BME280;11103;43.788;23.710;2022-11-22T01:07:52;147921.28;;;6.14;100.00
21877;BME280;11103;43.788;23.710;2022-11-22T01:10:18;147950.59;;;6.26;100.00
21877;BME280;11103;43.788;23.710;2022-11-22T01:12:45;147935.28;;;6.20;100.00
21877;BME280;11103;43.788;23.710;2022-11-22T01:15:11;147875.38;;;5.96;100.00
21877;BME280;11103;43.788;23.710;2022-11-22T01:17:37;147884.31;;;5.99;100.00
21877;BME280;11103;43.788;23.710;2022-11-22T01:20:03;147876.66;;;5.96;100.00
21877;BME280;11103;43.788;23.710;2022-11-22T01:22:29;147856.25;;;5.88;100.00
21877;BME280;11103;43.788;23.710;2022-11-22T01:24:54;147824.38;;;5.76;100.00
21877;BME280;11103;43.788;23.710;2022-11-22T01:30:28;147789.97;;;5.62;100.00
21877;BME280;11103;43.788;23.710;2022-11-22T01:32:53;147777.19;;;5.57;100.00
21877;BME280;11103;43.788;23.710;2022-11-22T01:35:19;147764.44;;;5.52;100.00
21877;BME280;11103;43.788;23.710;2022-11-22T01:37:44;147778.47;;;5.58;100.00
21877;BME280;11103;43.788;23.710;2022-11-22T01:40:10;147732.63;;;5.39;100.00
21877;BME280;11103;43.788;23.710;2022-11-22T01:42:55;147740.28;;;5.43;100.00
21877;BME280;11103;43.788;23.710;2022-11-22T01:48:13;147714.81;;;5.32;100.00
21877;BME280;11103;43.788;23.710;2022-11-22T01:50:43;147696.94;;;5.25;100.00
21877;BME280;11103;43.788;23.710;2022-11-22T01:53:17;147704.59;;;5.28;100.00
21877;BME280;11103;43.788;23.710;2022-11-22T01:55:45;147695.66;;;5.25;100.00
21877;BME280;11103;43.788;23.710;2022-11-22T01:58:13;147667.63;;;5.14;100.00
21877;BME280;11103;43.788;23.710;2022-11-22T02:00:39;147653.63;;;5.08;100.00
21877;BME280;11103;43.788;23.710;2022-11-22T02:03:07;147647.25;;;5.06;100.00
21877;BME280;11103;43.788;23.710;2022-11-22T02:05:34;147671.50;;;5.15;100.00
21877;BME280;11103;43.788;23.710;2022-11-22T02:10:52;147663.84;;;5.12;100.00
21877;BME280;11103;43.788;23.710;2022-11-22T02:13:21;147565.78;;;4.73;100.00
21877;BME280;11103;43.788;23.710;2022-11-22T02:15:49;147644.75;;;5.05;100.00
21877;BME280;11103;43.788;23.710;2022-11-22T02:18:15;147646.03;;;5.05;100.00
21877;BME280;11103;43.788;23.710;2022-11-22T02:20:40;147605.28;;;4.89;100.00
21877;BME280;11103;43.788;23.710;2022-11-22T02:23:18;147619.25;;;4.95;100.00
21877;BME280;11103;43.788;23.710;2022-11-22T02:26:00;147586.16;;;4.81;100.00
21877;BME280;11103;43.788;23.710;2022-11-22T02:28:29;147581.06;;;4.79;100.00
21877;BME280;11103;43.788;23.710;2022-11-22T02:30:55;147563.25;;;4.72;100.00
21877;BME280;11103;43.788;23.710;2022-11-22T02:33:20;147576.00;;;4.77;100.00
21877;BME280;11103;43.788;23.710;2022-11-22T02:35:46;147521.25;;;4.56;100.00
21877;BME280;11103;43.788;23.710;2022-11-22T02:38:15;147512.31;;;4.52;100.00
21877;BME280;11103;43.788;23.710;2022-11-22T02:40:46;147527.59;;;4.58;100.00
21877;BME280;11103;43.788;23.710;2022-11-22T02:43:17;147546.69;;;4.66;100.00
21877;BME280;11103;43.788;23.710;2022-11-22T02:45:43;147517.41;;;4.54;100.00
21877;BME280;11103;43.788;23.710;2022-11-22T02:48:13;147532.69;;;4.60;100.00
21877;BME280;11103;43.788;23.710;2022-11-22T02:50:39;147522.53;;;4.56;100.00
21877;BME280;11103;43.788;23.710;2022-11-22T02:53:06;147512.31;;;4.52;100.00
21877;BME280;11103;43.788;23.710;2022-11-22T02:55:32;147507.25;;;4.50;100.00
21877;BME280;11103;43.788;23.710;2022-11-22T02:57:57;147476.69;;;4.38;100.00
21877;BME280;11103;43.788;23.710;2022-11-22T03:00:23;147497.03;;;4.46;100.00
21877;BME280;11103;43.788;23.710;2022-11-22T03:02:51;147493.25;;;4.45;100.00
21877;BME280;11103;43.788;23.710;2022-11-22T03:05:16;147484.31;;;4.41;100.00
21877;BME280;11103;43.788;23.710;2022-11-22T03:07:42;147471.59;;;4.36;100.00
21877;BME280;11103;43.788;23.710;2022-11-22T03:10:08;147462.69;;;4.33;100.00
21877;BME280;11103;43.788;23.710;2022-11-22T03:12:33;147425.81;;;4.18;100.00
21877;BME280;11103;43.788;23.710;2022-11-22T03:14:58;147415.59;;;4.14;100.00
21877;BME280;11103;43.788;23.710;2022-11-22T03:17:24;147416.88;;;4.14;100.00
21877;BME280;11103;43.788;23.710;2022-11-22T03:19:49;147407.97;;;4.11;100.00
21877;BME280;11103;43.788;23.710;2022-11-22T03:22:15;147379.97;;;4.00;100.00
21877;BME280;11103;43.788;23.710;2022-11-22T03:24:40;147397.81;;;4.07;100.00
21877;BME280;11103;43.788;23.710;2022-11-22T03:27:06;147371.09;;;3.96;100.00
21877;BME280;11103;43.788;23.710;2022-11-22T03:29:31;147385.09;;;4.02;100.00
21877;BME280;11103;43.788;23.710;2022-11-22T03:31:56;147382.53;;;4.01;100.00
21877;BME280;11103;43.788;23.710;2022-11-22T03:34:22;147388.88;;;4.03;100.00
21877;BME280;11103;43.788;23.710;2022-11-22T03:36:47;147405.44;;;4.10;100.00
21877;BME280;11103;43.788;23.710;2022-11-22T03:39:13;147413.09;;;4.13;100.00
21877;BME280;11103;43.788;23.710;2022-11-22T03:41:38;147376.16;;;3.98;100.00
21877;BME280;11103;43.788;23.710;2022-11-22T03:44:04;147393.97;;;4.05;100.00
21877;BME280;11103;43.788;23.710;2022-11-22T03:46:29;147383.81;;;4.01;100.00
21877;BME280;11103;43.788;23.710;2022-11-22T03:48:55;147340.53;;;3.84;100.00
21877;BME280;11103;43.788;23.710;2022-11-22T03:51:20;147353.25;;;3.89;100.00
21877;BME280;11103;43.788;23.710;2022-11-22T03:53:46;147363.47;;;3.93;100.00
21877;BME280;11103;43.788;23.710;2022-11-22T03:56:11;147354.53;;;3.90;100.00
21877;BME280;11103;43.788;23.710;2022-11-22T03:58:37;147336.75;;;3.83;100.00
21877;BME280;11103;43.788;23.710;2022-11-22T04:01:02;147307.47;;;3.71;100.00
21877;BME280;11103;43.788;23.710;2022-11-22T04:03:27;147275.72;;;3.58;100.00
21877;BME280;11103;43.788;23.710;2022-11-22T04:05:53;147252.78;;;3.49;100.00
21877;BME280;11103;43.788;23.710;2022-11-22T04:08:18;147214.63;;;3.34;100.00
21877;BME280;11103;43.788;23.710;2022-11-22T04:10:44;147193.06;;;3.26;100.00
21877;BME280;11103;43.788;23.710;2022-11-22T04:13:09;147138.41;;;3.04;100.00
21877;BME280;11103;43.788;23.710;2022-11-22T04:15:35;147109.16;;;2.92;100.00
21877;BME280;11103;43.788;23.710;2022-11-22T04:18:01;147076.13;;;2.79;100.00
21877;BME280;11103;43.788;23.710;2022-11-22T04:20:30;147072.28;;;2.78;100.00
21877;BME280;11103;43.788;23.710;2022-11-22T04:23:19;147064.66;;;2.75;100.00
21877;BME280;11103;43.788;23.710;2022-11-22T04:25:49;147039.25;;;2.65;100.00
21877;BME280;11103;43.788;23.710;2022-11-22T04:28:17;147040.53;;;2.65;100.00
21877;BME280;11103;43.788;23.710;2022-11-22T04:30:43;147058.28;;;2.72;100.00
21877;BME280;11103;43.788;23.710;2022-11-22T04:33:29;147097.72;;;2.88;100.00
21877;BME280;11103;43.788;23.710;2022-11-22T04:35:55;147092.59;;;2.86;100.00
21877;BME280;11103;43.788;23.710;2022-11-22T04:38:21;147084.97;;;2.83;100.00
21877;BME280;11103;43.788;23.710;2022-11-22T04:40:47;147111.72;;;2.93;100.00
21877;BME280;11103;43.788;23.710;2022-11-22T04:43:23;147133.28;;;3.02;100.00
21877;BME280;11103;43.788;23.710;2022-11-22T04:46:07;147097.72;;;2.88;100.00
21877;BME280;11103;43.788;23.710;2022-11-22T04:48:33;147076.13;;;2.79;100.00
21877;BME280;11103;43.788;23.710;2022-11-22T04:50:58;147102.78;;;2.90;100.00
21877;BME280;11103;43.788;23.710;2022-11-22T04:53:43;147096.44;;;2.87;100.00
21877;BME280;11103;43.788;23.710;2022-11-22T04:56:09;147059.56;;;2.73;100.00
21877;BME280;11103;43.788;23.710;2022-11-22T04:58:35;146982.06;;;2.42;100.00
21877;BME280;11103;43.788;23.710;2022-11-22T05:01:00;146996.03;;;2.48;100.00
21877;BME280;11103;43.788;23.710;2022-11-22T05:03:26;147015.13;;;2.55;100.00
21877;BME280;11103;43.788;23.710;2022-11-22T05:06:00;147022.75;;;2.58;100.00
21877;BME280;11103;43.788;23.710;2022-11-22T05:08:26;147039.25;;;2.65;100.00
21877;BME280;11103;43.788;23.710;2022-11-22T05:10:52;147063.41;;;2.74;100.00
21877;BME280;11103;43.788;23.710;2022-11-22T05:13:29;147062.13;;;2.74;100.00
21877;BME280;11103;43.788;23.710;2022-11-22T05:15:56;147046.88;;;2.68;100.00
21877;BME280;11103;43.788;23.710;2022-11-22T05:18:22;147012.56;;;2.54;100.00
21877;BME280;11103;43.788;23.710;2022-11-22T05:20:48;147049.44;;;2.69;100.00
21877;BME280;11103;43.788;23.710;2022-11-22T05:23:14;147021.47;;;2.58;100.00
21877;BME280;11103;43.788;23.710;2022-11-22T05:25:59;147001.16;;;2.50;100.00
21877;BME280;11103;43.788;23.710;2022-11-22T05:28:32;147018.91;;;2.57;100.00
21877;BME280;11103;43.788;23.710;2022-11-22T05:30:57;146964.28;;;2.35;100.00
21877;BME280;11103;43.788;23.710;2022-11-22T05:33:23;146971.91;;;2.38;100.00
21877;BME280;11103;43.788;23.710;2022-11-22T05:35:49;146894.44;;;2.07;100.00
21877;BME280;11103;43.788;23.710;2022-11-22T05:38:14;146187.44;;;2.28;100.00
21877;BME280;11103;43.788;23.710;2022-11-22T05:40:40;144771.50;;;2.19;100.00
21877;BME280;11103;43.788;23.710;2022-11-22T05:43:05;145379.69;;;2.39;100.00
21877;BME280;11103;43.788;23.710;2022-11-22T05:45:32;146969.38;;;2.37;100.00
21877;BME280;11103;43.788;23.710;2022-11-22T05:47:58;146817.19;;;2.48;100.00
21877;BME280;11103;43.788;23.710;2022-11-22T05:50:27;146004.59;;;2.50;100.00
21877;BME280;11103;43.788;23.710;2022-11-22T05:52:52;145928.59;;;2.45;100.00
21877;BME280;11103;43.788;23.710;2022-11-22T05:55:18;145271.69;;;2.46;100.00
21877;BME280;11103;43.788;23.710;2022-11-22T05:57:43;144057.56;;;2.53;100.00
21877;BME280;11103;43.788;23.710;2022-11-22T06:00:09;146777.72;;;2.59;100.00
21877;BME280;11103;43.788;23.710;2022-11-22T06:02:36;147087.53;;;2.84;100.00
21877;BME280;11103;43.788;23.710;2022-11-22T06:05:01;147063.41;;;2.74;100.00
21877;BME280;11103;43.788;23.710;2022-11-22T06:07:26;147062.13;;;2.74;100.00
21877;BME280;11103;43.788;23.710;2022-11-22T06:09:52;147084.97;;;2.83;100.00
21877;BME280;11103;43.788;23.710;2022-11-22T06:12:17;147126.91;;;2.99;100.00
21877;BME280;11103;43.788;23.710;2022-11-22T06:14:44;147149.81;;;3.09;100.00
21877;BME280;11103;43.788;23.710;2022-11-22T06:17:10;147187.94;;;3.24;100.00
21877;BME280;11103;43.788;23.710;2022-11-22T06:19:35;147201.91;;;3.29;100.00
21877;BME280;11103;43.788;23.710;2022-11-22T06:22:00;147235.00;;;3.42;100.00
21877;BME280;11103;43.788;23.710;2022-11-22T06:24:26;147261.72;;;3.53;100.00
21877;BME280;11103;43.788;23.710;2022-11-22T06:26:52;147278.22;;;3.59;100.00
21877;BME280;11103;43.788;23.710;2022-11-22T06:29:17;147322.75;;;3.77;100.00
21877;BME280;11103;43.788;23.710;2022-11-22T06:31:42;147386.31;;;4.02;100.00
21877;BME280;11103;43.788;23.710;2022-11-22T06:34:11;147414.31;;;4.13;100.00
21877;BME280;11103;43.788;23.710;2022-11-22T06:36:37;147395.25;;;4.06;100.00
21877;BME280;11103;43.788;23.710;2022-11-22T06:39:03;147474.16;;;4.37;100.00
21877;BME280;11103;43.788;23.710;2022-11-22T06:41:33;147505.97;;;4.50;100.00
21877;BME280;11103;43.788;23.710;2022-11-22T06:44:06;147507.25;;;4.50;100.00
21877;BME280;11103;43.788;23.710;2022-11-22T06:46:32;147542.91;;;4.64;100.00
21877;BME280;11103;43.788;23.710;2022-11-22T06:48:58;147642.19;;;5.04;100.00
21877;BME280;11103;43.788;23.710;2022-11-22T06:51:25;147693.16;;;5.24;100.00
21877;BME280;11103;43.788;23.710;2022-11-22T06:53:51;147751.72;;;5.47;100.00
21877;BME280;11103;43.788;23.710;2022-11-22T06:56:24;147797.63;;;5.65;100.00
21877;BME280;11103;43.788;23.710;2022-11-22T06:58:53;147814.16;;;5.72;100.00
21877;BME280;11103;43.788;23.710;2022-11-22T07:01:21;147795.06;;;5.64;100.00
21877;BME280;11103;43.788;23.710;2022-11-22T07:03:47;147871.56;;;5.94;100.00
21877;BME280;11103;43.788;23.710;2022-11-22T07:06:14;147908.50;;;6.09;100.00
21877;BME280;11103;43.788;23.710;2022-11-22T07:08:40;147908.50;;;6.09;100.00
21877;BME280;11103;43.788;23.710;2022-11-22T07:11:11;147951.88;;;6.26;100.00
21877;BME280;11103;43.788;23.710;2022-11-22T07:13:39;148011.78;;;6.50;100.00
21877;BME280;11103;43.788;23.710;2022-11-22T07:16:06;147991.38;;;6.42;100.00
21877;BME280;11103;43.788;23.710;2022-11-22T07:18:33;148009.25;;;6.49;100.00
21877;BME280;11103;43.788;23.710;2022-11-22T07:21:04;148073.00;;;6.74;100.00
21877;BME280;11103;43.788;23.710;2022-11-22T07:23:30;148074.28;;;6.75;100.00
21877;BME280;11103;43.788;23.710;2022-11-22T07:25:56;148102.34;;;6.86;100.00
21877;BME280;11103;43.788;23.710;2022-11-22T07:28:22;148113.81;;;6.90;100.00
21877;BME280;11103;43.788;23.710;2022-11-22T07:30:48;148110.00;;;6.89;100.00
21877;BME280;11103;43.788;23.710;2022-11-22T07:33:14;148134.25;;;6.98;100.00
21877;BME280;11103;43.788;23.710;2022-11-22T07:35:39;148118.94;;;6.92;100.00
21877;BME280;11103;43.788;23.710;2022-11-22T07:38:05;148141.88;;;7.01;100.00
21877;BME280;11103;43.788;23.710;2022-11-22T07:40:30;148162.28;;;7.09;100.00
21877;BME280;11103;43.788;23.710;2022-11-22T07:42:58;148185.25;;;7.18;100.00
21877;BME280;11103;43.788;23.710;2022-11-22T07:45:24;148166.13;;;7.11;100.00
21877;BME280;11103;43.788;23.710;2022-11-22T07:47:49;148138.06;;;7.00;100.00
21877;BME280;11103;43.788;23.710;2022-11-22T07:50:14;148126.59;;;6.95;100.00
21877;BME280;11103;43.788;23.710;2022-11-22T07:52:40;148214.63;;;7.30;100.00
21877;BME280;11103;43.788;23.710;2022-11-22T07:55:07;148215.91;;;7.31;100.00
21877;BME280;11103;43.788;23.710;2022-11-22T07:57:32;148192.94;;;7.22;100.00
21877;BME280;11103;43.788;23.710;2022-11-22T07:59:58;148227.38;;;7.35;100.00
21877;BME280;11103;43.788;23.710;2022-11-22T08:02:25;148227.38;;;7.35;100.00
21877;BME280;11103;43.788;23.710;2022-11-22T08:04:51;148297.59;;;7.63;100.00
21877;BME280;11103;43.788;23.710;2022-11-22T08:07:17;148316.72;;;7.70;100.00
21877;BME280;11103;43.788;23.710;2022-11-22T08:09:43;148392.06;;;8.00;100.00
21877;BME280;11103;43.788;23.710;2022-11-22T08:12:09;148386.97;;;7.98;100.00
21877;BME280;11103;43.788;23.710;2022-11-22T08:14:35;148407.38;;;8.06;100.00
21877;BME280;11103;43.788;23.710;2022-11-22T08:17:00;148467.44;;;8.30;100.00
21877;BME280;11103;43.788;23.710;2022-11-22T08:19:26;148473.84;;;8.32;100.00
21877;BME280;11103;43.788;23.710;2022-11-22T08:21:52;148508.31;;;8.46;100.00
21877;BME280;11103;43.788;23.710;2022-11-22T08:24:17;148547.91;;;8.62;100.00
21877;BME280;11103;43.788;23.710;2022-11-22T08:26:43;148560.72;;;8.67;100.00
21877;BME280;11103;43.788;23.710;2022-11-22T08:29:10;148565.84;;;8.69;100.00
21877;BME280;11103;43.788;23.710;2022-11-22T08:31:36;148576.03;;;8.73;100.00
21877;BME280;11103;43.788;23.710;2022-11-22T08:34:02;148553.06;;;8.64;100.00
21877;BME280;11103;43.788;23.710;2022-11-22T08:36:28;148593.94;;;8.80;100.00
21877;BME280;11103;43.788;23.710;2022-11-22T08:38:54;148680.84;;;9.14;100.00
21877;BME280;11103;43.788;23.710;2022-11-22T08:41:19;148716.63;;;9.28;100.00
21877;BME280;11103;43.788;23.710;2022-11-22T08:43:45;148734.50;;;9.35;100.00
21877;BME280;11103;43.788;23.710;2022-11-22T08:46:13;148744.78;;;9.39;100.00
21877;BME280;11103;43.788;23.710;2022-11-22T08:48:38;148761.34;;;9.46;100.00
21877;BME280;11103;43.788;23.710;2022-11-22T08:51:08;148798.47;;;9.61;100.00
21877;BME280;11103;43.788;23.710;2022-11-22T08:53:40;148655.28;;;9.04;100.00
21877;BME280;11103;43.788;23.710;2022-11-22T08:56:07;148879.03;;;9.92;100.00
21877;BME280;11103;43.788;23.710;2022-11-22T08:58:34;148936.66;;;10.15;100.00
21877;BME280;11103;43.788;23.710;2022-11-22T09:01:12;148958.41;;;10.24;100.00
21877;BME280;11103;43.788;23.710;2022-11-22T09:03:54;148986.56;;;10.35;100.00
21877;BME280;11103;43.788;23.710;2022-11-22T09:06:20;148990.38;;;10.36;100.00
21877;BME280;11103;43.788;23.710;2022-11-22T09:08:46;149000.63;;;10.40;100.00
21877;BME280;11103;43.788;23.710;2022-11-22T09:11:16;148960.94;;;10.25;99.64
21877;BME280;11103;43.788;23.710;2022-11-22T09:13:42;148890.56;;;9.97;100.00
21877;BME280;11103;43.788;23.710;2022-11-22T09:16:16;148941.75;;;10.17;100.00
21877;BME280;11103;43.788;23.710;2022-11-22T09:18:42;149003.16;;;10.41;100.00
21877;BME280;11103;43.788;23.710;2022-11-22T09:21:12;149003.16;;;10.41;100.00
21877;BME280;11103;43.788;23.710;2022-11-22T09:23:40;149023.66;;;10.49;99.53
21877;BME280;11103;43.788;23.710;2022-11-22T09:26:10;149045.41;;;10.58;100.00
21877;BME280;11103;43.788;23.710;2022-11-22T09:28:36;149060.78;;;10.64;97.58
21877;BME280;11103;43.788;23.710;2022-11-22T09:31:10;149077.44;;;10.70;95.25
21877;BME280;11103;43.788;23.710;2022-11-22T09:33:37;149090.22;;;10.75;96.10
21877;BME280;11103;43.788;23.710;2022-11-22T09:36:08;149100.44;;;10.80;96.45
21877;BME280;11103;43.788;23.710;2022-11-22T09:38:35;149115.81;;;10.86;92.87
21877;BME280;11103;43.788;23.710;2022-11-22T09:41:16;149126.09;;;10.90;92.38
21877;BME280;11103;43.788;23.710;2022-11-22T09:46:53;149205.44;;;11.21;89.76
21877;BME280;11103;43.788;23.710;2022-11-22T09:57:22;149263.09;;;11.44;80.04
21877;BME280;11103;43.788;23.710;2022-11-22T09:59:55;149300.22;;;11.58;81.66
21877;BME280;11103;43.788;23.710;2022-11-22T10:02:34;149342.53;;;11.75;82.01
21877;BME280;11103;43.788;23.710;2022-11-22T10:05:08;149328.44;;;11.69;83.43
21877;BME280;11103;43.788;23.710;2022-11-22T10:07:46;149338.72;;;11.73;80.31
21877;BME280;11103;43.788;23.710;2022-11-22T10:12:53;149310.47;;;11.62;81.25
21877;BME280;11103;43.788;23.710;2022-11-22T10:15:34;149251.53;;;11.39;80.31
21877;BME280;11103;43.788;23.710;2022-11-22T10:18:22;149261.81;;;11.43;81.81
21877;BME280;11103;43.788;23.710;2022-11-22T10:20:49;149261.81;;;11.43;80.86
21877;BME280;11103;43.788;23.710;2022-11-22T10:23:21;149273.31;;;11.48;82.25
21877;BME280;11103;43.788;23.710;2022-11-22T10:25:55;149284.88;;;11.52;81.97
21877;BME280;11103;43.788;23.710;2022-11-22T10:28:33;149274.59;;;11.48;82.23
21877;BME280;11103;43.788;23.710;2022-11-22T10:31:15;149313.00;;;11.63;79.51
21877;BME280;11103;43.788;23.710;2022-11-22T10:33:57;149345.13;;;11.76;80.63
21877;BME280;11103;43.788;23.710;2022-11-22T10:44:51;149351.53;;;11.78;80.48
21877;BME280;11103;43.788;23.710;2022-11-22T10:50:22;149445.03;;;12.15;75.54
21877;BME280;11103;43.788;23.710;2022-11-22T10:55:49;149392.53;;;11.94;75.67
21877;BME280;11103;43.788;23.710;2022-11-22T11:00:59;149372.03;;;11.86;77.70
21877;BME280;11103;43.788;23.710;2022-11-22T11:03:33;149382.25;;;11.90;78.47
21877;BME280;11103;43.788;23.710;2022-11-22T11:06:21;149391.22;;;11.94;80.59
21877;BME280;11103;43.788;23.710;2022-11-22T11:09:18;149374.59;;;11.87;80.32
21877;BME280;11103;43.788;23.710;2022-11-22T11:11:45;149418.13;;;12.05;78.59
21877;BME280;11103;43.788;23.710;2022-11-22T11:14:33;149405.34;;;12.00;79.13
21877;BME280;11103;43.788;23.710;2022-11-22T11:17:01;149363.03;;;11.83;78.16
21877;BME280;11103;43.788;23.710;2022-11-22T11:19:29;149360.50;;;11.82;75.41
21877;BME280;11103;43.788;23.710;2022-11-22T11:22:10;149318.19;;;11.65;78.26
21877;BME280;11103;43.788;23.710;2022-11-22T11:24:39;149355.34;;;11.80;78.03
21877;BME280;11103;43.788;23.710;2022-11-22T11:27:06;149342.53;;;11.75;77.62
21877;BME280;11103;43.788;23.710;2022-11-22T11:29:37;149310.47;;;11.62;76.58
21877;BME280;11103;43.788;23.710;2022-11-22T11:32:15;149279.72;;;11.50;78.06
21877;BME280;11103;43.788;23.710;2022-11-22T11:34:47;149318.19;;;11.65;78.39
21877;BME280;11103;43.788;23.710;2022-11-22T11:37:22;149327.16;;;11.69;76.31
21877;BME280;11103;43.788;23.710;2022-11-22T11:39:48;149331.03;;;11.70;77.80
21877;BME280;11103;43.788;23.710;2022-11-22T11:42:31;149333.56;;;11.71;79.05
21877;BME280;11103;43.788;23.710;2022-11-22T11:45:25;149357.94;;;11.81;80.82
21877;BME280;11103;43.788;23.710;2022-11-22T11:47:52;149350.22;;;11.78;76.68
21877;BME280;11103;43.788;23.710;2022-11-22T11:50:21;149355.34;;;11.80;79.60
21877;BME280;11103;43.788;23.710;2022-11-22T11:55:20;149379.72;;;11.89;80.82
21877;BME280;11103;43.788;23.710;2022-11-22T11:57:46;149397.63;;;11.97;81.58
21877;BME280;11103;43.788;23.710;2022-11-22T12:00:26;149393.81;;;11.95;79.99
21877;BME280;11103;43.788;23.710;2022-11-22T12:03:00;149401.50;;;11.98;80.70
21877;BME280;11103;43.788;23.710;2022-11-22T12:05:31;149418.13;;;12.05;78.36
21877;BME280;11103;43.788;23.710;2022-11-22T12:07:57;149384.81;;;11.91;79.45
21877;BME280;11103;43.788;23.710;2022-11-22T12:13:00;149351.53;;;11.78;77.90
21877;BME280;11103;43.788;23.710;2022-11-22T12:15:40;149361.75;;;11.82;78.76
21877;BME280;11103;43.788;23.710;2022-11-22T12:18:32;149397.63;;;11.97;79.75
21877;BME280;11103;43.788;23.710;2022-11-22T12:21:02;149437.34;;;12.12;81.49
21877;BME280;11103;43.788;23.710;2022-11-22T12:26:15;149454.03;;;12.19;77.08
21877;BME280;11103;43.788;23.710;2022-11-22T12:28:41;149441.22;;;12.14;79.47
21877;BME280;11103;43.788;23.710;2022-11-22T12:31:16;149446.34;;;12.16;77.99
21877;BME280;11103;43.788;23.710;2022-11-22T12:33:49;149425.84;;;12.08;81.65
21877;BME280;11103;43.788;23.710;2022-11-22T12:36:21;149402.75;;;11.99;83.25
21877;BME280;11103;43.788;23.710;2022-11-22T12:38:49;149441.22;;;12.14;78.70
21877;BME280;11103;43.788;23.710;2022-11-22T12:41:20;149393.81;;;11.95;81.99
21877;BME280;11103;43.788;23.710;2022-11-22T12:44:00;149381.00;;;11.90;79.82
21877;BME280;11103;43.788;23.710;2022-11-22T12:46:49;149348.94;;;11.77;80.04
21877;BME280;11103;43.788;23.710;2022-11-22T12:54:36;149328.44;;;11.69;82.73
21877;BME280;11103;43.788;23.710;2022-11-22T12:57:17;149325.88;;;11.68;84.27
21877;BME280;11103;43.788;23.710;2022-11-22T12:59:52;149313.00;;;11.63;85.50
21877;BME280;11103;43.788;23.710;2022-11-22T13:02:31;149310.47;;;11.62;87.09
21877;BME280;11103;43.788;23.710;2022-11-22T13:05:05;149291.28;;;11.55;88.43
21877;BME280;11103;43.788;23.710;2022-11-22T13:10:06;149236.19;;;11.33;89.47
21877;BME280;11103;43.788;23.710;2022-11-22T13:12:38;149236.19;;;11.33;91.89
21877;BME280;11103;43.788;23.710;2022-11-22T13:15:05;149205.44;;;11.21;93.14
21877;BME280;11103;43.788;23.710;2022-11-22T13:17:33;149202.88;;;11.20;93.49
21877;BME280;11103;43.788;23.710;2022-11-22T13:22:34;149190.06;;;11.15;96.37
21877;BME280;11103;43.788;23.710;2022-11-22T13:25:52;149184.97;;;11.13;98.17
21877;BME280;11103;43.788;23.710;2022-11-22T13:28:24;149169.59;;;11.07;98.69
21877;BME280;11103;43.788;23.710;2022-11-22T13:33:37;149190.06;;;11.15;100.00
21877;BME280;11103;43.788;23.710;2022-11-22T13:39:05;149199.03;;;11.18;100.00
21877;BME280;11103;43.788;23.710;2022-11-22T13:41:53;149168.28;;;11.06;100.00
21877;BME280;11103;43.788;23.710;2022-11-22T13:46:56;149152.97;;;11.00;100.00
21877;BME280;11103;43.788;23.710;2022-11-22T13:49:41;149144.00;;;10.97;100.00
21877;BME280;11103;43.788;23.710;2022-11-22T13:57:36;149124.78;;;10.89;100.00
21877;BME280;11103;43.788;23.710;2022-11-22T14:02:44;149092.75;;;10.76;100.00
21877;BME280;11103;43.788;23.710;2022-11-22T14:07:51;149054.38;;;10.61;100.00